Terminal Aerodrome Forecast
Issued by NWS Austin/San Antonio, TX

Home | Current Version | Previous Version | Text Only | Print | Product List | Glossary On
Versions: 1 2 3 4 5 6 7 8 9 10 11 12 13 14 15 16 17 18 19 20 21 22
000
FTUS44 KEWX 011326 AAA
TAFDRT
TAF AMD
KDRT 011326Z 0113/0212 12007KT P6SM BKN008
     FM011500 11008KT P6SM BKN020
     FM011600 14015KT P6SM BKN050
     FM012100 14017KT P6SM VCSH SCT060
     FM020000 12008KT P6SM SCT250
     FM021100 11008KT P6SM OVC025=

USA.gov is the U.S. government's official web portal to all federal, state and local government web resources and services.